Patapsco — WDB2652 — position and weather

sailwx.info

Track history (hours):
 
Tides and Currents Weather Stations Pressure Air Temp Water Temp Dewpoint Dewpoint Depression Visibility Wind Speed Wind Dir Waves Ship Positions

Patapsco

Owner: ASSOCIATION OF MARYLAND PILOTS, BALTIMORE, MD. More information available from US FCC via Universal Licensing System and Coast Guard Vessel Documentation Center.

Last reported at 2017-Oct-20 17:29 UTC. Time now 2017-Oct-20 17:38 UTC.
Position N 36°54' W 076°05'.

Length 17 m; draft 1.5 m.

Type: Pilot. MMSI: 366878280.

Date/timePositionNaut miles runAvg speedWind from/ knotsBaromVisibWave heightAir tempDewpointWater temp
2017-Oct-20 17:29N 36°54' W 076°05'0 0.0
2017-Oct-20 16:57N 36°54' W 076°05'0 0.0
2017-Oct-20 16:29N 36°54' W 076°05'0 0.0
2017-Oct-20 15:59N 36°54' W 076°05'0 0.0
2017-Oct-20 13:56N 36°54' W 076°05'0 0.0
2017-Oct-20 13:30N 36°54' W 076°05'0 0.0
2017-Oct-19 21:27N 36°54' W 076°05'0 0.0
2017-Oct-19 20:59N 36°54' W 076°05'0 0.0
2017-Oct-19 19:59N 36°54' W 076°05'1 0.0
2017-Oct-19 00:26N 36°55' W 076°05'1 0.4
2017-Oct-18 22:26N 36°54' W 076°05'0 0.0
2017-Oct-18 21:58N 36°54' W 076°05'1 1.9
2017-Oct-18 21:30N 36°55' W 076°05'5 9.2
2017-Oct-18 20:55N 36°56' W 075°59'6 4.5
2017-Oct-18 19:38N 36°54' W 076°05'0 0.0
2017-Oct-18 18:13N 36°54' W 076°05'0 0.0
2017-Oct-18 17:59N 36°54' W 076°05'0 0.1
2017-Oct-18 17:23N 36°54' W 076°05'816.2
2017-Oct-18 16:55N 36°56' W 075°56'718.4
2017-Oct-18 16:31N 36°55' W 076°05'3 4.8
2017-Oct-18 15:58N 36°58' W 076°04'4 6.2
2017-Oct-18 15:24N 36°54' W 076°05'0 0.0
2017-Oct-18 15:00N 36°54' W 076°05'0 0.0
2017-Oct-18 12:17N 36°54' W 076°05'618.2
2017-Oct-18 11:57N 36°56' W 075°58'510.6
2017-Oct-18 11:30N 36°56' W 076°04'1 1.3
2017-Oct-18 11:00N 36°55' W 076°05'0 0.6
2017-Oct-18 10:25N 36°56' W 076°04'2 1.2
2017-Oct-18 09:11N 36°54' W 076°05'0 0.0
2017-Oct-18 07:00N 36°54' W 076°05'0 0.0
2017-Oct-18 00:34N 36°54' W 076°05'111.5
2017-Oct-18 00:30N 36°55' W 076°05'1 0.4
2017-Oct-17 22:24N 36°54' W 076°05'0 0.0
2017-Oct-17 21:56N 36°54' W 076°05'0 0.0
2017-Oct-17 21:29N 36°54' W 076°05'0 0.0
2017-Oct-17 21:00N 36°54' W 076°05'0 0.0
2017-Oct-17 20:29N 36°54' W 076°05'0 0.0
2017-Oct-17 18:53N 36°54' W 076°05'0 0.0
2017-Oct-17 17:48N 36°54' W 076°05'0 0.0
2017-Oct-17 17:30N 36°54' W 076°05'0 0.0
2017-Oct-17 16:59N 36°54' W 076°05'0 0.0
2017-Oct-17 16:30N 36°54' W 076°05'0 0.4
2017-Oct-17 16:00N 36°54' W 076°06'812.6
2017-Oct-17 15:23N 36°56' W 075°56'615.7
2017-Oct-17 14:59N 36°56' W 076°04'2 3.3
2017-Oct-17 14:23N 36°54' W 076°05'616.1
2017-Oct-17 14:00N 36°57' W 075°58'2 4.7
2017-Oct-17 13:30N 36°56' W 076°01'4 7.2
2017-Oct-17 12:58N 36°54' W 076°05'0 0.0
2017-Oct-17 12:27N 36°54' W 076°05'0 0.0
2017-Oct-17 11:58N 36°54' W 076°05'0 0.0
2017-Oct-17 10:26N 36°54' W 076°05'0 0.0
2017-Oct-17 07:19N 36°54' W 076°05'413.7
2017-Oct-17 07:00N 36°57' W 076°01'4 0.7
2017-Oct-17 00:40N 36°54' W 076°05'314.2
2017-Oct-17 00:28N 36°56' W 076°03'3 1.5
2017-Oct-16 22:47N 36°54' W 076°05'0 0.0
2017-Oct-16 22:30N 36°54' W 076°05'0 0.0
2017-Oct-16 22:00N 36°54' W 076°05'0 0.0
2017-Oct-16 21:30N 36°54' W 076°05'0 0.0
2017-Oct-16 20:59N 36°54' W 076°05'0 0.0
2017-Oct-16 20:30N 36°54' W 076°05'0 0.0
2017-Oct-16 19:59N 36°54' W 076°05'0 0.0
2017-Oct-16 19:30N 36°54' W 076°05'0 0.0
2017-Oct-16 19:00N 36°54' W 076°05'0 0.0
2017-Oct-16 18:30N 36°54' W 076°05'0 0.0
2017-Oct-16 15:08N 36°54' W 076°05'0 0.0
2017-Oct-16 14:53N 36°54' W 076°05'0 0.0
2017-Oct-16 13:40N 36°54' W 076°05'0 0.0
2017-Oct-16 13:20N 36°54' W 076°05'0 0.0
2017-Oct-16 13:00N 36°54' W 076°05'0 0.0
2017-Oct-16 12:29N 36°54' W 076°05'0 0.0
2017-Oct-16 12:00N 36°54' W 076°05'0 0.0
2017-Oct-16 11:30N 36°54' W 076°05'0 0.0
2017-Oct-16 09:58N 36°54' W 076°05'0 0.1
2017-Oct-16 08:49N 36°54' W 076°05'0 0.1
2017-Oct-16 07:33N 36°54' W 076°05'0 5.7
2017-Oct-16 07:30N 36°55' W 076°06'0 0.0
2017-Oct-16 01:32N 36°54' W 076°06'0 9.8
2017-Oct-16 01:30N 36°55' W 076°05'0 0.1
2017-Oct-15 21:55N 36°54' W 076°05'611.7
2017-Oct-15 21:24N 36°56' W 075°58'3 7.1
2017-Oct-15 21:00N 36°56' W 076°02'3 1.0
2017-Oct-15 17:31N 36°54' W 076°05'0 0.0
2017-Oct-15 14:55N 36°54' W 076°05'0 0.0
2017-Oct-15 13:59N 36°54' W 076°05'0 0.0
2017-Oct-15 13:30N 36°54' W 076°05'0 0.0
2017-Oct-15 12:24N 36°54' W 076°05'0 0.0
2017-Oct-15 12:00N 36°54' W 076°05'1 0.7
2017-Oct-15 10:03N 36°56' W 076°04'1 0.4
2017-Oct-15 06:23N 36°54' W 076°05'0 0.0
2017-Oct-14 13:36N 36°54' W 076°05'1 8.5
2017-Oct-14 13:30N 36°55' W 076°05'2 4.7
2017-Oct-14 13:00N 36°56' W 076°03'3 0.7
2017-Oct-14 08:29N 36°54' W 076°06'0 0.0
2017-Oct-13 22:11N 36°54' W 076°05'0 0.0
2017-Oct-13 21:57N 36°54' W 076°05'0 0.0
2017-Oct-12 18:14N 36°54' W 076°05'415.3
2017-Oct-12 18:00N 36°57' W 076°02'5 8.6
2017-Oct-12 17:25N 36°56' W 075°56'511.5
2017-Oct-12 17:00N 36°56' W 076°02'3 5.0
2017-Oct-12 16:18N 36°54' W 076°05'0 0.0
2017-Oct-12 01:24N 36°54' W 076°05'4 9.1
2017-Oct-12 00:56N 36°57' W 076°01'4 0.2
2017-Oct-10 22:35N 36°54' W 076°05'1 6.2
2017-Oct-10 22:30N 36°55' W 076°05'916.6
2017-Oct-10 21:59N 36°55' W 075°55'  
Track history (hours):
 
Tides and Currents Weather Stations Pressure Air Temp Water Temp Dewpoint Dewpoint Depression Visibility Wind Speed Wind Dir Waves Ship Positions

Patapsco

Owner: ASSOCIATION OF MARYLAND PILOTS, BALTIMORE, MD. More information available from US FCC via Universal Licensing System and Coast Guard Vessel Documentation Center.

Last reported at 2017-Oct-20 17:29 UTC. Time now 2017-Oct-20 17:38 UTC.
Position N 36°54' W 076°05'.

Length 17 m; draft 1.5 m.

Type: Pilot. MMSI: 366878280.

Date/timePositionNaut miles runAvg speedWind from/ knotsBaromVisibWave heightAir tempDewpointWater temp
2017-Oct-20 17:29N 36°54' W 076°05'0 0.0
2017-Oct-20 16:57N 36°54' W 076°05'0 0.0
2017-Oct-20 16:29N 36°54' W 076°05'0 0.0
2017-Oct-20 15:59N 36°54' W 076°05'0 0.0
2017-Oct-20 13:56N 36°54' W 076°05'0 0.0
2017-Oct-20 13:30N 36°54' W 076°05'0 0.0
2017-Oct-19 21:27N 36°54' W 076°05'0 0.0
2017-Oct-19 20:59N 36°54' W 076°05'0 0.0
2017-Oct-19 19:59N 36°54' W 076°05'1 0.0
2017-Oct-19 00:26N 36°55' W 076°05'1 0.4
2017-Oct-18 22:26N 36°54' W 076°05'0 0.0
2017-Oct-18 21:58N 36°54' W 076°05'1 1.9
2017-Oct-18 21:30N 36°55' W 076°05'5 9.2
2017-Oct-18 20:55N 36°56' W 075°59'6 4.5
2017-Oct-18 19:38N 36°54' W 076°05'0 0.0
2017-Oct-18 18:13N 36°54' W 076°05'0 0.0
2017-Oct-18 17:59N 36°54' W 076°05'0 0.1
2017-Oct-18 17:23N 36°54' W 076°05'816.2
2017-Oct-18 16:55N 36°56' W 075°56'718.4
2017-Oct-18 16:31N 36°55' W 076°05'3 4.8
2017-Oct-18 15:58N 36°58' W 076°04'4 6.2
2017-Oct-18 15:24N 36°54' W 076°05'0 0.0
2017-Oct-18 15:00N 36°54' W 076°05'0 0.0
2017-Oct-18 12:17N 36°54' W 076°05'618.2
2017-Oct-18 11:57N 36°56' W 075°58'510.6
2017-Oct-18 11:30N 36°56' W 076°04'1 1.3
2017-Oct-18 11:00N 36°55' W 076°05'0 0.6
2017-Oct-18 10:25N 36°56' W 076°04'2 1.2
2017-Oct-18 09:11N 36°54' W 076°05'0 0.0
2017-Oct-18 07:00N 36°54' W 076°05'0 0.0
2017-Oct-18 00:34N 36°54' W 076°05'111.5
2017-Oct-18 00:30N 36°55' W 076°05'1 0.4
2017-Oct-17 22:24N 36°54' W 076°05'0 0.0
2017-Oct-17 21:56N 36°54' W 076°05'0 0.0
2017-Oct-17 21:29N 36°54' W 076°05'0 0.0
2017-Oct-17 21:00N 36°54' W 076°05'0 0.0
2017-Oct-17 20:29N 36°54' W 076°05'0 0.0
2017-Oct-17 18:53N 36°54' W 076°05'0 0.0
2017-Oct-17 17:48N 36°54' W 076°05'0 0.0
2017-Oct-17 17:30N 36°54' W 076°05'0 0.0
2017-Oct-17 16:59N 36°54' W 076°05'0 0.0
2017-Oct-17 16:30N 36°54' W 076°05'0 0.4
2017-Oct-17 16:00N 36°54' W 076°06'812.6
2017-Oct-17 15:23N 36°56' W 075°56'615.7
2017-Oct-17 14:59N 36°56' W 076°04'2 3.3
2017-Oct-17 14:23N 36°54' W 076°05'616.1
2017-Oct-17 14:00N 36°57' W 075°58'2 4.7
2017-Oct-17 13:30N 36°56' W 076°01'4 7.2
2017-Oct-17 12:58N 36°54' W 076°05'0 0.0
2017-Oct-17 12:27N 36°54' W 076°05'0 0.0
2017-Oct-17 11:58N 36°54' W 076°05'0 0.0
2017-Oct-17 10:26N 36°54' W 076°05'0 0.0
2017-Oct-17 07:19N 36°54' W 076°05'413.7
2017-Oct-17 07:00N 36°57' W 076°01'4 0.7
2017-Oct-17 00:40N 36°54' W 076°05'314.2
2017-Oct-17 00:28N 36°56' W 076°03'3 1.5
2017-Oct-16 22:47N 36°54' W 076°05'0 0.0
2017-Oct-16 22:30N 36°54' W 076°05'0 0.0
2017-Oct-16 22:00N 36°54' W 076°05'0 0.0
2017-Oct-16 21:30N 36°54' W 076°05'0 0.0
2017-Oct-16 20:59N 36°54' W 076°05'0 0.0
2017-Oct-16 20:30N 36°54' W 076°05'0 0.0
2017-Oct-16 19:59N 36°54' W 076°05'0 0.0
2017-Oct-16 19:30N 36°54' W 076°05'0 0.0
2017-Oct-16 19:00N 36°54' W 076°05'0 0.0
2017-Oct-16 18:30N 36°54' W 076°05'0 0.0
2017-Oct-16 15:08N 36°54' W 076°05'0 0.0
2017-Oct-16 14:53N 36°54' W 076°05'0 0.0
2017-Oct-16 13:40N 36°54' W 076°05'0 0.0
2017-Oct-16 13:20N 36°54' W 076°05'0 0.0
2017-Oct-16 13:00N 36°54' W 076°05'0 0.0
2017-Oct-16 12:29N 36°54' W 076°05'0 0.0
2017-Oct-16 12:00N 36°54' W 076°05'0 0.0
2017-Oct-16 11:30N 36°54' W 076°05'0 0.0
2017-Oct-16 09:58N 36°54' W 076°05'0 0.1
2017-Oct-16 08:49N 36°54' W 076°05'0 0.1
2017-Oct-16 07:33N 36°54' W 076°05'0 5.7
2017-Oct-16 07:30N 36°55' W 076°06'0 0.0
2017-Oct-16 01:32N 36°54' W 076°06'0 9.8
2017-Oct-16 01:30N 36°55' W 076°05'0 0.1
2017-Oct-15 21:55N 36°54' W 076°05'611.7
2017-Oct-15 21:24N 36°56' W 075°58'3 7.1
2017-Oct-15 21:00N 36°56' W 076°02'3 1.0
2017-Oct-15 17:31N 36°54' W 076°05'0 0.0
2017-Oct-15 14:55N 36°54' W 076°05'0 0.0
2017-Oct-15 13:59N 36°54' W 076°05'0 0.0
2017-Oct-15 13:30N 36°54' W 076°05'0 0.0
2017-Oct-15 12:24N 36°54' W 076°05'0 0.0
2017-Oct-15 12:00N 36°54' W 076°05'1 0.7
2017-Oct-15 10:03N 36°56' W 076°04'1 0.4
2017-Oct-15 06:23N 36°54' W 076°05'0 0.0
2017-Oct-14 13:36N 36°54' W 076°05'1 8.5
2017-Oct-14 13:30N 36°55' W 076°05'2 4.7
2017-Oct-14 13:00N 36°56' W 076°03'3 0.7
2017-Oct-14 08:29N 36°54' W 076°06'0 0.0
2017-Oct-13 22:11N 36°54' W 076°05'0 0.0
2017-Oct-13 21:57N 36°54' W 076°05'0 0.0
2017-Oct-12 18:14N 36°54' W 076°05'415.3
2017-Oct-12 18:00N 36°57' W 076°02'5 8.6
2017-Oct-12 17:25N 36°56' W 075°56'511.5
2017-Oct-12 17:00N 36°56' W 076°02'3 5.0
2017-Oct-12 16:18N 36°54' W 076°05'0 0.0
2017-Oct-12 01:24N 36°54' W 076°05'4 9.1
2017-Oct-12 00:56N 36°57' W 076°01'4 0.2
2017-Oct-10 22:35N 36°54' W 076°05'1 6.2
2017-Oct-10 22:30N 36°55' W 076°05'916.6
2017-Oct-10 21:59N 36°55' W 075°55'  

Dump ship's entire track history